createdAt,value
2023-08-24T00:00:49.243Z,82.65
2023-08-24T00:03:34.299Z,82.73
2023-08-24T00:06:02.410Z,82.91
2023-08-24T00:08:30.673Z,82.35
2023-08-24T00:10:58.562Z,82.76
2023-08-24T00:13:27.165Z,83.02
2023-08-24T00:15:55.685Z,83.10
2023-08-24T00:18:23.649Z,82.97
2023-08-24T00:20:52.236Z,82.94
2023-08-24T00:23:20.249Z,83.32
2023-08-24T00:25:48.281Z,84.01
2023-08-24T00:28:16.367Z,84.15
2023-08-24T00:30:44.245Z,84.72
2023-08-24T00:33:13.473Z,84.72
2023-08-24T00:35:42.122Z,84.50
2023-08-24T00:38:10.370Z,84.58
2023-08-24T00:40:40.079Z,84.58
2023-08-24T00:43:08.359Z,84.39
2023-08-24T00:45:39.836Z,84.22
2023-08-24T00:48:08.728Z,83.96
2023-08-24T00:50:36.632Z,84.14
2023-08-24T00:53:04.776Z,84.20
2023-08-24T00:55:32.811Z,84.65
2023-08-24T00:58:01.183Z,84.64
2023-08-24T01:00:29.400Z,84.70
2023-08-24T01:02:57.347Z,84.70
2023-08-24T01:05:25.798Z,84.82
2023-08-24T01:07:53.975Z,84.75
2023-08-24T01:10:22.585Z,84.68
2023-08-24T01:13:23.291Z,84.58
2023-08-24T01:16:11.634Z,84.66
2023-08-24T01:18:41.988Z,84.82
2023-08-24T01:21:10.340Z,85.02
2023-08-24T01:23:47.649Z,85.46
2023-08-24T01:26:20.036Z,85.16
2023-08-24T01:28:48.593Z,85.13
2023-08-24T01:31:17.814Z,85.03
2023-08-24T01:33:46.365Z,84.68
2023-08-24T01:36:17.999Z,84.77
2023-08-24T01:38:49.049Z,84.90
2023-08-24T01:41:39.985Z,85.64
2023-08-24T01:44:10.459Z,85.37
2023-08-24T01:46:39.052Z,85.41
2023-08-24T01:49:08.708Z,85.77
2023-08-24T01:51:37.184Z,85.73
2023-08-24T01:54:05.584Z,85.79
2023-08-24T01:56:33.363Z,85.83
2023-08-24T01:59:01.404Z,85.85
2023-08-24T02:01:29.267Z,86.08
2023-08-24T02:03:57.755Z,86.54
2023-08-24T02:06:25.851Z,86.63
2023-08-24T02:08:53.681Z,86.16
2023-08-24T02:11:22.043Z,86.30
2023-08-24T02:13:50.423Z,86.43
2023-08-24T02:16:19.094Z,85.98
2023-08-24T02:18:46.979Z,86.08
2023-08-24T02:21:15.879Z,85.65
2023-08-24T02:23:44.239Z,85.71
2023-08-24T02:26:12.121Z,85.79
2023-08-24T02:28:40.351Z,85.74
2023-08-24T02:31:08.605Z,85.90
2023-08-24T02:33:36.569Z,85.82
2023-08-24T02:36:05.591Z,85.36
2023-08-24T02:38:33.694Z,85.26
2023-08-24T02:41:02.993Z,85.69
2023-08-24T02:43:32.636Z,86.14
2023-08-24T02:46:05.175Z,86.00
2023-08-24T02:48:34.217Z,86.07
2023-08-24T02:51:04.624Z,86.39
2023-08-24T02:53:32.960Z,86.36
2023-08-24T02:56:02.979Z,86.45
2023-08-24T02:58:30.934Z,86.39
2023-08-24T03:00:59.066Z,86.32
2023-08-24T03:03:27.187Z,86.19
2023-08-24T03:05:56.497Z,85.94
2023-08-24T03:08:24.757Z,85.92
2023-08-24T03:10:52.647Z,85.42
2023-08-24T03:13:20.864Z,85.19
2023-08-24T03:15:48.881Z,85.33
2023-08-24T03:18:17.890Z,85.03
2023-08-24T03:20:47.383Z,85.46
2023-08-24T03:23:16.983Z,85.86
2023-08-24T03:25:45.093Z,85.98
2023-08-24T03:28:13.417Z,85.68
2023-08-24T03:30:47.444Z,85.54
2023-08-24T03:33:15.665Z,85.62
2023-08-24T03:35:44.421Z,85.52
2023-08-24T03:38:13.015Z,85.50
2023-08-24T03:40:41.260Z,85.84
2023-08-24T03:43:09.257Z,86.02
2023-08-24T03:45:37.343Z,85.54
2023-08-24T03:48:06.480Z,85.76
2023-08-24T03:50:34.671Z,85.72
2023-08-24T03:53:02.727Z,85.39
2023-08-24T03:55:30.797Z,85.66
2023-08-24T03:57:59.405Z,86.06
2023-08-24T04:00:27.351Z,86.44
2023-08-24T04:02:56.071Z,86.45
2023-08-24T04:05:26.058Z,86.34
2023-08-24T04:07:55.035Z,86.44
2023-08-24T04:10:23.066Z,86.71
2023-08-24T04:12:51.312Z,86.58
2023-08-24T04:15:19.558Z,86.54
2023-08-24T04:17:47.858Z,85.96
2023-08-24T04:20:17.274Z,86.29
2023-08-24T04:22:45.088Z,86.46
2023-08-24T04:25:13.102Z,85.93
2023-08-24T04:27:41.039Z,85.84
2023-08-24T04:30:12.806Z,86.23
2023-08-24T04:32:41.116Z,87.51
2023-08-24T04:35:09.464Z,87.58
2023-08-24T04:37:38.758Z,87.50
2023-08-24T04:40:08.558Z,87.80
2023-08-24T04:42:36.501Z,88.33
2023-08-24T04:45:04.566Z,87.72
2023-08-24T04:47:32.580Z,87.62
2023-08-24T04:50:00.345Z,87.25
2023-08-24T04:52:28.248Z,87.28
2023-08-24T04:54:56.366Z,87.35
2023-08-24T04:57:25.708Z,87.34
2023-08-24T04:59:53.886Z,87.33
2023-08-24T05:02:22.153Z,87.51
2023-08-24T05:04:50.334Z,87.52
2023-08-24T05:07:18.999Z,87.22
2023-08-24T05:09:47.263Z,86.26
2023-08-24T05:12:15.233Z,86.02
2023-08-24T05:14:43.223Z,86.11
2023-08-24T05:17:11.106Z,86.43
2023-08-24T05:19:39.022Z,86.49
2023-08-24T05:22:06.910Z,86.90
2023-08-24T05:24:34.956Z,87.07
2023-08-24T05:27:02.839Z,87.25
2023-08-24T05:29:31.007Z,87.26
2023-08-24T05:32:00.316Z,87.18
2023-08-24T05:34:28.361Z,87.23
2023-08-24T05:36:56.271Z,87.24
2023-08-24T05:39:24.378Z,87.55
2023-08-24T05:41:53.412Z,87.27
2023-08-24T05:44:22.714Z,87.11
2023-08-24T05:46:50.672Z,87.08
2023-08-24T05:49:18.549Z,86.87
2023-08-24T05:51:46.709Z,87.22
2023-08-24T05:54:19.683Z,87.18
2023-08-24T05:56:48.162Z,87.00
2023-08-24T05:59:16.321Z,86.27
2023-08-24T06:01:44.323Z,85.95
2023-08-24T06:04:12.378Z,85.89
2023-08-24T06:06:40.456Z,85.45
2023-08-24T06:09:10.806Z,84.85
2023-08-24T06:11:39.644Z,84.60
2023-08-24T06:14:08.252Z,84.04
2023-08-24T06:16:36.102Z,83.86
2023-08-24T06:19:04.848Z,83.67
2023-08-24T06:21:32.975Z,83.97
2023-08-24T06:24:02.354Z,84.28
2023-08-24T06:26:30.566Z,84.11
2023-08-24T06:28:58.929Z,83.45
2023-08-24T06:31:27.154Z,83.39
2023-08-24T06:33:55.028Z,83.32
2023-08-24T06:36:23.056Z,83.24
2023-08-24T06:38:51.528Z,82.16
2023-08-24T06:41:20.845Z,81.86
2023-08-24T06:43:48.871Z,80.48
2023-08-24T06:46:16.813Z,78.95
2023-08-24T06:48:45.853Z,78.54
2023-08-24T06:51:13.941Z,77.39
2023-08-24T06:53:43.687Z,76.15
2023-08-24T06:56:11.801Z,75.45
2023-08-24T06:58:39.673Z,74.24
2023-08-24T07:01:08.546Z,73.07
2023-08-24T07:03:36.622Z,72.56
2023-08-24T07:06:07.599Z,71.44
2023-08-24T07:08:38.221Z,69.98
2023-08-24T07:11:06.414Z,68.21
2023-08-24T07:13:35.847Z,66.66
2023-08-24T07:16:06.724Z,65.66
2023-08-24T07:18:34.534Z,64.83
2023-08-24T07:21:02.512Z,64.21
2023-08-24T07:23:30.383Z,63.37
2023-08-24T07:25:58.200Z,62.47
2023-08-24T07:28:26.360Z,61.09
2023-08-24T07:30:57.257Z,61.42
2023-08-24T07:33:26.224Z,60.76
2023-08-24T07:35:54.256Z,60.17
2023-08-24T07:38:22.307Z,59.84
2023-08-24T07:40:50.182Z,59.74
2023-08-24T07:43:18.005Z,58.80
2023-08-24T07:45:46.046Z,58.66
2023-08-24T07:48:14.305Z,58.61
2023-08-24T07:50:42.561Z,59.16
2023-08-24T07:53:10.849Z,58.94
2023-08-24T07:55:38.802Z,57.56
2023-08-24T07:58:06.882Z,57.15
2023-08-24T08:00:36.086Z,56.28
2023-08-24T08:03:04.451Z,55.60
2023-08-24T08:05:33.323Z,55.56
2023-08-24T08:08:01.527Z,54.96
2023-08-24T08:10:29.439Z,54.65
2023-08-24T08:12:57.269Z,53.47
2023-08-24T08:15:25.246Z,54.33
2023-08-24T08:17:53.881Z,53.06
2023-08-24T08:20:22.034Z,52.86
2023-08-24T08:22:50.274Z,53.18
2023-08-24T08:25:23.458Z,52.50
2023-08-24T08:27:51.569Z,51.11
2023-08-24T08:30:21.514Z,50.94
2023-08-24T08:32:50.162Z,49.99
2023-08-24T08:35:18.584Z,49.49
2023-08-24T08:37:47.516Z,49.22
2023-08-24T08:40:15.831Z,49.10
2023-08-24T08:42:44.283Z,49.01
2023-08-24T08:45:12.628Z,48.47
2023-08-24T08:47:42.667Z,47.50
2023-08-24T08:50:11.624Z,47.07
2023-08-24T08:52:39.798Z,46.93
2023-08-24T08:55:10.310Z,46.51
2023-08-24T08:57:40.974Z,46.40
2023-08-24T09:00:10.967Z,45.57
2023-08-24T09:02:39.274Z,44.97
2023-08-24T09:05:07.829Z,44.41
2023-08-24T09:07:36.709Z,44.36
2023-08-24T09:10:06.011Z,43.12
2023-08-24T09:12:34.638Z,43.14
2023-08-24T09:15:07.373Z,42.86
2023-08-24T09:17:35.617Z,42.13
2023-08-24T09:20:08.637Z,41.70
2023-08-24T09:22:41.116Z,40.61
2023-08-24T09:25:12.255Z,40.43
2023-08-24T09:27:40.095Z,40.53
2023-08-24T09:30:08.935Z,41.11
2023-08-24T09:32:36.947Z,40.36
2023-08-24T09:35:07.143Z,39.04
2023-08-24T09:37:35.776Z,38.20
2023-08-24T09:40:10.516Z,37.67
2023-08-24T09:42:40.955Z,38.47
2023-08-24T09:45:11.432Z,39.04
2023-08-24T09:47:39.497Z,39.13
2023-08-24T09:50:08.418Z,38.86
2023-08-24T09:52:38.053Z,38.51
2023-08-24T09:55:06.825Z,37.99
2023-08-24T09:57:38.101Z,35.77
2023-08-24T10:00:15.381Z,35.43
2023-08-24T10:02:50.381Z,36.38
2023-08-24T10:05:34.375Z,35.89
2023-08-24T10:08:09.185Z,35.52
2023-08-24T10:10:38.780Z,35.50
2023-08-24T10:13:12.273Z,35.95
2023-08-24T10:15:48.184Z,36.24
2023-08-24T10:18:17.312Z,35.76
2023-08-24T10:20:46.795Z,35.63
2023-08-24T10:23:16.732Z,35.81
2023-08-24T10:25:45.519Z,36.04
2023-08-24T10:28:14.416Z,35.62
2023-08-24T10:30:44.971Z,36.00
2023-08-24T10:33:14.657Z,37.27
2023-08-24T10:35:43.274Z,37.01
2023-08-24T10:38:23.818Z,35.76
2023-08-24T10:40:52.373Z,35.18
2023-08-24T10:43:21.358Z,36.00
2023-08-24T10:46:00.237Z,36.17
2023-08-24T10:48:29.687Z,35.85
2023-08-24T10:51:21.422Z,35.25
2023-08-24T10:53:53.132Z,36.07
2023-08-24T10:56:22.048Z,36.05
2023-08-24T10:59:10.407Z,36.02
2023-08-24T11:01:45.137Z,35.89
2023-08-24T11:04:13.323Z,36.22
2023-08-24T11:07:01.251Z,36.21
2023-08-24T11:09:46.189Z,35.88
2023-08-24T11:12:15.316Z,36.39
2023-08-24T11:14:55.860Z,37.12
2023-08-24T11:17:24.336Z,36.99
2023-08-24T11:19:53.175Z,37.38
2023-08-24T11:22:22.644Z,37.49
2023-08-24T11:24:50.718Z,37.68
2023-08-24T11:27:21.750Z,37.90
2023-08-24T11:29:58.836Z,37.44
2023-08-24T11:32:26.896Z,36.38
2023-08-24T11:34:55.724Z,36.95
2023-08-24T11:37:23.759Z,36.00
2023-08-24T11:39:51.534Z,34.85
2023-08-24T11:42:19.397Z,34.76
2023-08-24T11:44:48.016Z,34.69
2023-08-24T11:47:16.657Z,34.76
2023-08-24T11:49:44.925Z,35.60
2023-08-24T11:52:13.107Z,35.61
2023-08-24T11:54:43.432Z,35.45
2023-08-24T11:57:11.914Z,36.20
2023-08-24T11:59:40.595Z,36.96
2023-08-24T12:02:10.854Z,36.94
2023-08-24T12:04:40.433Z,37.21
2023-08-24T12:07:12.703Z,37.29
2023-08-24T12:09:41.473Z,37.06
2023-08-24T12:12:16.179Z,37.56
2023-08-24T12:14:44.879Z,38.30
2023-08-24T12:17:13.064Z,38.86
2023-08-24T12:19:57.009Z,38.23
2023-08-24T12:22:25.391Z,37.17
2023-08-24T12:24:53.518Z,37.27
2023-08-24T12:27:25.338Z,37.19
2023-08-24T12:29:53.397Z,36.74
2023-08-24T12:32:24.301Z,36.36
2023-08-24T12:34:56.314Z,37.22
2023-08-24T12:37:24.457Z,38.41
2023-08-24T12:39:52.325Z,39.79
2023-08-24T12:42:20.286Z,40.27
2023-08-24T12:44:48.256Z,40.41
2023-08-24T12:47:16.153Z,39.57
2023-08-24T12:49:44.059Z,39.42
2023-08-24T12:52:12.166Z,39.69
2023-08-24T12:54:39.998Z,39.50
2023-08-24T12:57:07.917Z,39.88
2023-08-24T12:59:35.911Z,40.48
2023-08-24T13:02:05.589Z,40.64
2023-08-24T13:04:34.655Z,40.27
2023-08-24T13:07:03.034Z,40.60
2023-08-24T13:09:30.890Z,41.26
2023-08-24T13:11:58.768Z,41.45
2023-08-24T13:14:27.010Z,41.77
2023-08-24T13:16:55.222Z,41.85
2023-08-24T13:19:23.089Z,42.65
2023-08-24T13:21:51.272Z,43.27
2023-08-24T13:24:19.332Z,43.14
2023-08-24T13:26:47.199Z,43.19
2023-08-24T13:29:17.840Z,43.89
2023-08-24T13:31:46.069Z,43.70
2023-08-24T13:34:14.589Z,42.87
2023-08-24T13:36:42.651Z,42.57
2023-08-24T13:39:12.067Z,42.87
2023-08-24T13:41:40.227Z,42.73
2023-08-24T13:44:08.196Z,42.84
2023-08-24T13:46:36.326Z,42.41
2023-08-24T13:49:04.647Z,42.50
2023-08-24T13:51:32.597Z,41.68
2023-08-24T13:54:00.582Z,41.13
2023-08-24T13:56:28.680Z,41.41
2023-08-24T13:58:56.725Z,41.50
2023-08-24T14:01:24.663Z,41.80
2023-08-24T14:03:52.586Z,41.74
2023-08-24T14:06:20.628Z,41.57
2023-08-24T14:08:48.702Z,41.81
2023-08-24T14:11:18.018Z,41.69
2023-08-24T14:13:46.068Z,41.66
2023-08-24T14:16:14.157Z,41.27
2023-08-24T14:18:42.473Z,41.09
2023-08-24T14:21:15.457Z,40.67
2023-08-24T14:23:44.167Z,40.65
2023-08-24T14:26:12.265Z,40.87
2023-08-24T14:28:58.312Z,39.26
2023-08-24T14:31:28.329Z,38.78
2023-08-24T14:33:56.753Z,38.01
2023-08-24T14:36:25.006Z,37.33
2023-08-24T14:38:55.741Z,37.47
2023-08-24T14:41:24.039Z,37.27
2023-08-24T14:43:52.306Z,37.45
2023-08-24T14:46:20.223Z,37.26
2023-08-24T14:48:48.309Z,37.45
2023-08-24T14:51:16.455Z,37.51
2023-08-24T14:53:44.510Z,37.41
2023-08-24T14:56:12.415Z,37.33
2023-08-24T14:58:40.259Z,37.57
2023-08-24T15:01:08.087Z,37.77
2023-08-24T15:03:37.158Z,38.08
2023-08-24T15:06:06.585Z,38.40
2023-08-24T15:08:35.244Z,38.40
2023-08-24T15:11:05.415Z,38.94
2023-08-24T15:13:35.728Z,39.17
2023-08-24T15:16:03.659Z,39.24
2023-08-24T15:18:31.817Z,39.33
2023-08-24T15:20:59.620Z,39.46
2023-08-24T15:23:28.656Z,39.60
2023-08-24T15:25:57.903Z,39.79
2023-08-24T15:28:26.321Z,40.19
2023-08-24T15:30:54.523Z,40.33
2023-08-24T15:33:22.550Z,40.64
2023-08-24T15:35:50.503Z,41.18
2023-08-24T15:38:18.880Z,41.63
2023-08-24T15:40:53.058Z,42.25
2023-08-24T15:43:21.363Z,42.70
2023-08-24T15:45:50.316Z,43.04
2023-08-24T15:48:18.242Z,43.60
2023-08-24T15:50:46.207Z,44.04
2023-08-24T15:53:14.419Z,44.59
2023-08-24T15:55:42.333Z,44.74
2023-08-24T15:58:10.117Z,45.02
2023-08-24T16:00:37.894Z,45.13
2023-08-24T16:03:05.884Z,45.34
2023-08-24T16:05:35.019Z,45.42
2023-08-24T16:08:04.878Z,45.64
2023-08-24T16:10:33.698Z,45.80
2023-08-24T16:13:01.603Z,46.14
2023-08-24T16:15:29.557Z,46.32
2023-08-24T16:17:57.478Z,46.11
2023-08-24T16:20:25.715Z,46.01
2023-08-24T16:22:53.563Z,46.35
2023-08-24T16:25:21.557Z,46.57
2023-08-24T16:27:51.106Z,46.78
2023-08-24T16:30:20.302Z,47.13
2023-08-24T16:32:48.320Z,47.37
2023-08-24T16:35:16.371Z,47.79
2023-08-24T16:37:44.230Z,47.82
2023-08-24T16:40:12.933Z,47.62
2023-08-24T16:42:40.791Z,47.70
2023-08-24T16:45:09.162Z,47.74
2023-08-24T16:47:37.039Z,47.82
2023-08-24T16:50:05.211Z,47.79
2023-08-24T16:52:33.146Z,47.91
2023-08-24T16:55:01.104Z,48.26
2023-08-24T16:57:28.847Z,48.33
2023-08-24T16:59:56.935Z,48.50
2023-08-24T17:02:24.992Z,48.55
2023-08-24T17:04:52.798Z,48.74
2023-08-24T17:07:20.788Z,48.88
2023-08-24T17:09:48.737Z,49.16
2023-08-24T17:12:17.262Z,49.16
2023-08-24T17:14:45.296Z,49.43
2023-08-24T17:17:13.674Z,49.74
2023-08-24T17:19:41.873Z,49.84
2023-08-24T17:22:09.903Z,49.86
2023-08-24T17:24:38.090Z,50.30
2023-08-24T17:27:06.167Z,50.38
2023-08-24T17:29:34.760Z,50.62
2023-08-24T17:32:02.758Z,50.78
2023-08-24T17:34:31.337Z,50.90
2023-08-24T17:36:59.400Z,50.95
2023-08-24T17:39:30.851Z,51.10
2023-08-24T17:41:58.766Z,51.21
2023-08-24T17:44:28.825Z,51.48
2023-08-24T17:46:56.881Z,51.76
2023-08-24T17:49:27.915Z,51.82
2023-08-24T17:51:55.698Z,52.26
2023-08-24T17:54:24.158Z,53.19
2023-08-24T17:56:51.929Z,53.76
2023-08-24T17:59:20.402Z,54.74
2023-08-24T18:01:48.272Z,54.83
2023-08-24T18:04:16.020Z,55.83
2023-08-24T18:06:44.198Z,55.97
2023-08-24T18:09:13.009Z,56.24
2023-08-24T18:11:40.846Z,57.24
2023-08-24T18:14:10.719Z,57.33
2023-08-24T18:16:38.887Z,57.24
2023-08-24T18:19:07.208Z,58.20
2023-08-24T18:21:35.195Z,58.49
2023-08-24T18:24:03.264Z,58.69
2023-08-24T18:26:31.431Z,58.96
2023-08-24T18:28:59.510Z,60.17
2023-08-24T18:31:27.894Z,59.98
2023-08-24T18:33:55.721Z,60.24
2023-08-24T18:36:23.663Z,60.28
2023-08-24T18:38:51.687Z,61.06
2023-08-24T18:41:19.565Z,62.25
2023-08-24T18:43:47.648Z,63.06
2023-08-24T18:46:15.631Z,62.80
2023-08-24T18:48:43.904Z,62.20
2023-08-24T18:51:11.708Z,62.51
2023-08-24T18:53:40.976Z,62.34
2023-08-24T18:56:08.898Z,62.95
2023-08-24T18:58:36.790Z,63.62
2023-08-24T19:01:05.631Z,63.86
2023-08-24T19:03:33.914Z,64.09
2023-08-24T19:06:11.045Z,64.28
2023-08-24T19:08:47.143Z,64.46
2023-08-24T19:11:15.450Z,64.47
2023-08-24T19:13:44.652Z,65.38
2023-08-24T19:16:13.660Z,65.02
2023-08-24T19:18:41.883Z,65.20
2023-08-24T19:21:13.659Z,65.13
2023-08-24T19:23:41.942Z,66.16
2023-08-24T19:26:10.107Z,66.15
2023-08-24T19:28:37.994Z,66.25
2023-08-24T19:31:05.812Z,65.93
2023-08-24T19:33:34.025Z,66.18
2023-08-24T19:36:01.903Z,66.71
2023-08-24T19:38:29.938Z,67.05
2023-08-24T19:41:03.147Z,67.05
2023-08-24T19:43:31.083Z,67.21
2023-08-24T19:45:59.156Z,67.04
2023-08-24T19:48:27.147Z,66.61
2023-08-24T19:50:55.248Z,66.73
2023-08-24T19:53:23.098Z,66.47
2023-08-24T19:55:51.360Z,66.68
2023-08-24T19:58:19.528Z,66.94
2023-08-24T20:00:47.572Z,67.41
2023-08-24T20:03:15.566Z,67.32
2023-08-24T20:05:43.493Z,67.47
2023-08-24T20:08:11.928Z,67.43
2023-08-24T20:10:42.887Z,67.41
2023-08-24T20:13:10.720Z,67.33
2023-08-24T20:15:38.546Z,67.49
2023-08-24T20:18:06.642Z,67.71
2023-08-24T20:20:34.759Z,67.41
2023-08-24T20:23:04.239Z,67.47
2023-08-24T20:25:32.311Z,67.85
2023-08-24T20:28:00.584Z,67.37
2023-08-24T20:30:28.657Z,67.38
2023-08-24T20:32:56.747Z,67.59
2023-08-24T20:35:24.753Z,67.50
2023-08-24T20:37:53.180Z,67.67
2023-08-24T20:40:21.292Z,67.98
2023-08-24T20:42:49.849Z,68.19
2023-08-24T20:45:17.830Z,68.49
2023-08-24T20:47:48.157Z,69.34
2023-08-24T20:50:16.393Z,69.35
2023-08-24T20:52:44.455Z,69.75
2023-08-24T20:55:15.483Z,70.28
2023-08-24T20:57:43.466Z,70.46
2023-08-24T21:00:15.665Z,70.15
2023-08-24T21:02:43.763Z,69.92
2023-08-24T21:05:11.825Z,69.70
2023-08-24T21:07:39.862Z,69.93
2023-08-24T21:10:07.962Z,69.66
2023-08-24T21:12:35.885Z,69.77
2023-08-24T21:15:04.368Z,69.54
2023-08-24T21:17:32.245Z,69.56
2023-08-24T21:20:00.077Z,69.30
2023-08-24T21:22:28.370Z,69.22
2023-08-24T21:24:59.926Z,69.50
2023-08-24T21:27:28.150Z,69.79
2023-08-24T21:29:56.363Z,69.85
2023-08-24T21:32:24.452Z,70.12
2023-08-24T21:34:53.789Z,70.55
2023-08-24T21:37:21.804Z,70.42
2023-08-24T21:39:49.602Z,70.56
2023-08-24T21:42:17.794Z,70.81
2023-08-24T21:44:45.581Z,70.81
2023-08-24T21:47:13.409Z,70.81
2023-08-24T21:49:41.400Z,70.58
2023-08-24T21:52:09.551Z,70.30
2023-08-24T21:54:37.525Z,70.33
2023-08-24T21:57:05.834Z,70.23
2023-08-24T21:59:33.836Z,70.18
2023-08-24T22:02:01.928Z,70.09
2023-08-24T22:04:29.846Z,70.16
2023-08-24T22:07:00.918Z,70.26
2023-08-24T22:09:29.087Z,70.23
2023-08-24T22:11:56.942Z,70.17
2023-08-24T22:14:24.919Z,70.40
2023-08-24T22:16:52.899Z,70.28
2023-08-24T22:19:26.652Z,70.13
2023-08-24T22:21:55.409Z,70.22
2023-08-24T22:24:23.388Z,70.06
2023-08-24T22:26:51.562Z,70.19
2023-08-24T22:29:19.904Z,70.11
2023-08-24T22:31:48.021Z,70.07
2023-08-24T22:34:16.150Z,69.89
2023-08-24T22:36:44.220Z,70.05
2023-08-24T22:39:12.489Z,70.23
2023-08-24T22:41:40.509Z,70.53
2023-08-24T22:44:09.140Z,70.66
2023-08-24T22:46:39.464Z,70.84
2023-08-24T22:49:07.443Z,70.70
2023-08-24T22:51:36.031Z,70.43
2023-08-24T22:54:04.617Z,70.49
2023-08-24T22:56:33.514Z,70.46
2023-08-24T22:59:01.650Z,70.31
2023-08-24T23:01:29.810Z,70.57
2023-08-24T23:03:57.907Z,70.85
2023-08-24T23:06:36.527Z,71.16
2023-08-24T23:09:04.506Z,71.05
2023-08-24T23:11:32.387Z,70.94
2023-08-24T23:14:00.174Z,70.97
2023-08-24T23:16:28.043Z,71.20
2023-08-24T23:18:56.092Z,71.63
2023-08-24T23:21:24.645Z,71.44
2023-08-24T23:23:53.012Z,71.53
2023-08-24T23:26:21.301Z,71.70
2023-08-24T23:28:49.252Z,71.86
2023-08-24T23:31:17.236Z,71.90
2023-08-24T23:33:45.809Z,72.02
2023-08-24T23:36:13.884Z,71.93
2023-08-24T23:38:41.899Z,71.75
2023-08-24T23:41:10.030Z,71.62
2023-08-24T23:43:38.189Z,71.66
2023-08-24T23:46:06.578Z,71.55
2023-08-24T23:48:37.610Z,71.66
2023-08-24T23:51:05.581Z,72.02
2023-08-24T23:53:36.516Z,71.87
2023-08-24T23:56:04.645Z,72.15
2023-08-24T23:58:33.053Z,72.23
